sensor_id;sensor_type;location;lat;lon;timestamp;pressure;altitude;pressure_sealevel;temperature;humidity
71248;BME280;73325;51.138;6.950;2024-02-26T00:01:18;99308.00;;;8.61;76.27
71248;BME280;73325;51.138;6.950;2024-02-26T00:03:49;99311.00;;;8.57;76.76
71248;BME280;73325;51.138;6.950;2024-02-26T00:06:19;99310.00;;;8.55;75.51
71248;BME280;73325;51.138;6.950;2024-02-26T00:08:49;99312.00;;;8.53;75.41
71248;BME280;73325;51.138;6.950;2024-02-26T00:11:19;99314.00;;;8.52;76.10
71248;BME280;73325;51.138;6.950;2024-02-26T00:13:50;99315.00;;;8.51;75.61
71248;BME280;73325;51.138;6.950;2024-02-26T00:16:20;99314.00;;;8.49;76.24
71248;BME280;73325;51.138;6.950;2024-02-26T00:18:50;99313.00;;;8.47;77.33
71248;BME280;73325;51.138;6.950;2024-02-26T00:21:20;99311.00;;;8.45;76.43
71248;BME280;73325;51.138;6.950;2024-02-26T00:23:52;99312.00;;;8.41;77.39
71248;BME280;73325;51.138;6.950;2024-02-26T00:26:21;99312.00;;;8.38;79.32
71248;BME280;73325;51.138;6.950;2024-02-26T00:28:52;99311.00;;;8.35;80.00
71248;BME280;73325;51.138;6.950;2024-02-26T00:31:22;99311.00;;;8.30;81.47
71248;BME280;73325;51.138;6.950;2024-02-26T00:33:52;99312.00;;;8.25;81.90
71248;BME280;73325;51.138;6.950;2024-02-26T00:36:22;99311.00;;;8.19;81.63
71248;BME280;73325;51.138;6.950;2024-02-26T00:38:53;99310.00;;;8.13;81.99
71248;BME280;73325;51.138;6.950;2024-02-26T00:41:23;99309.00;;;8.07;82.78
71248;BME280;73325;51.138;6.950;2024-02-26T00:43:53;99309.00;;;8.01;82.66
71248;BME280;73325;51.138;6.950;2024-02-26T00:46:23;99308.00;;;7.96;81.53
71248;BME280;73325;51.138;6.950;2024-02-26T00:48:54;99307.00;;;7.92;81.26
71248;BME280;73325;51.138;6.950;2024-02-26T00:51:24;99306.00;;;7.90;81.01
71248;BME280;73325;51.138;6.950;2024-02-26T00:53:54;99306.00;;;7.88;81.00
71248;BME280;73325;51.138;6.950;2024-02-26T00:56:25;99305.00;;;7.88;82.40
71248;BME280;73325;51.138;6.950;2024-02-26T00:58:55;99305.00;;;7.88;82.03
71248;BME280;73325;51.138;6.950;2024-02-26T01:01:25;99306.00;;;7.88;81.98
71248;BME280;73325;51.138;6.950;2024-02-26T01:03:55;99306.00;;;7.88;81.78
71248;BME280;73325;51.138;6.950;2024-02-26T01:06:26;99307.00;;;7.88;82.26
71248;BME280;73325;51.138;6.950;2024-02-26T01:08:56;99305.00;;;7.89;81.92
71248;BME280;73325;51.138;6.950;2024-02-26T01:11:26;99305.00;;;7.90;81.88
71248;BME280;73325;51.138;6.950;2024-02-26T01:13:57;99304.00;;;7.91;81.88
71248;BME280;73325;51.138;6.950;2024-02-26T01:16:27;99303.00;;;7.92;81.41
71248;BME280;73325;51.138;6.950;2024-02-26T01:18:57;99303.00;;;7.95;81.11
71248;BME280;73325;51.138;6.950;2024-02-26T01:21:28;99302.00;;;7.97;80.59
71248;BME280;73325;51.138;6.950;2024-02-26T01:23:58;99301.00;;;8.01;81.88
71248;BME280;73325;51.138;6.950;2024-02-26T01:26:28;99301.00;;;8.04;81.49
71248;BME280;73325;51.138;6.950;2024-02-26T01:28:58;99302.00;;;8.06;82.76
71248;BME280;73325;51.138;6.950;2024-02-26T01:31:29;99304.00;;;8.07;84.45
71248;BME280;73325;51.138;6.950;2024-02-26T01:33:59;99305.00;;;8.06;84.71
71248;BME280;73325;51.138;6.950;2024-02-26T01:36:29;99306.00;;;8.03;86.33
71248;BME280;73325;51.138;6.950;2024-02-26T01:39:00;99306.00;;;7.98;87.07
71248;BME280;73325;51.138;6.950;2024-02-26T01:41:30;99306.00;;;7.92;88.13
71248;BME280;73325;51.138;6.950;2024-02-26T01:44:00;99307.00;;;7.85;89.08
71248;BME280;73325;51.138;6.950;2024-02-26T01:46:33;99306.00;;;7.78;89.08
71248;BME280;73325;51.138;6.950;2024-02-26T01:49:02;99304.00;;;7.71;89.62
71248;BME280;73325;51.138;6.950;2024-02-26T01:51:33;99302.00;;;7.64;89.39
71248;BME280;73325;51.138;6.950;2024-02-26T01:54:03;99300.00;;;7.58;89.62
71248;BME280;73325;51.138;6.950;2024-02-26T01:56:33;99298.00;;;7.52;90.74
71248;BME280;73325;51.138;6.950;2024-02-26T01:59:03;99298.00;;;7.48;91.70
71248;BME280;73325;51.138;6.950;2024-02-26T02:01:33;99296.00;;;7.43;91.74
71248;BME280;73325;51.138;6.950;2024-02-26T02:04:04;99296.00;;;7.39;91.76
71248;BME280;73325;51.138;6.950;2024-02-26T02:06:35;99296.00;;;7.36;92.43
71248;BME280;73325;51.138;6.950;2024-02-26T02:09:05;99295.00;;;7.32;92.43
71248;BME280;73325;51.138;6.950;2024-02-26T02:11:36;99294.00;;;7.30;92.90
71248;BME280;73325;51.138;6.950;2024-02-26T02:14:06;99292.00;;;7.27;92.92
71248;BME280;73325;51.138;6.950;2024-02-26T02:16:36;99291.00;;;7.24;93.18
71248;BME280;73325;51.138;6.950;2024-02-26T02:19:07;99291.00;;;7.22;93.36
71248;BME280;73325;51.138;6.950;2024-02-26T02:21:37;99290.00;;;7.19;93.56
71248;BME280;73325;51.138;6.950;2024-02-26T02:24:07;99288.00;;;7.17;93.54
71248;BME280;73325;51.138;6.950;2024-02-26T02:26:38;99289.00;;;7.14;93.42
71248;BME280;73325;51.138;6.950;2024-02-26T02:29:09;99288.00;;;7.12;93.81
71248;BME280;73325;51.138;6.950;2024-02-26T02:31:39;99286.00;;;7.09;94.03
71248;BME280;73325;51.138;6.950;2024-02-26T02:34:10;99285.00;;;7.07;93.83
71248;BME280;73325;51.138;6.950;2024-02-26T02:36:51;99285.00;;;7.05;94.04
71248;BME280;73325;51.138;6.950;2024-02-26T02:39:11;99285.00;;;7.03;94.15
71248;BME280;73325;51.138;6.950;2024-02-26T02:41:41;99284.00;;;7.02;94.44
71248;BME280;73325;51.138;6.950;2024-02-26T02:44:12;99284.00;;;7.00;94.46
71248;BME280;73325;51.138;6.950;2024-02-26T02:46:43;99284.00;;;6.99;94.53
71248;BME280;73325;51.138;6.950;2024-02-26T02:49:13;99284.00;;;6.98;94.40
71248;BME280;73325;51.138;6.950;2024-02-26T02:51:43;99285.00;;;6.98;94.26
71248;BME280;73325;51.138;6.950;2024-02-26T02:54:13;99284.00;;;6.98;94.39
71248;BME280;73325;51.138;6.950;2024-02-26T02:56:44;99283.00;;;6.98;94.71
71248;BME280;73325;51.138;6.950;2024-02-26T02:59:14;99282.00;;;6.98;94.56
71248;BME280;73325;51.138;6.950;2024-02-26T03:01:45;99282.00;;;6.98;94.52
71248;BME280;73325;51.138;6.950;2024-02-26T03:04:15;99282.00;;;6.99;94.78
71248;BME280;73325;51.138;6.950;2024-02-26T03:06:45;99280.00;;;6.99;94.97
71248;BME280;73325;51.138;6.950;2024-02-26T03:09:16;99279.00;;;6.99;95.21
71248;BME280;73325;51.138;6.950;2024-02-26T03:11:46;99278.00;;;6.99;95.15
71248;BME280;73325;51.138;6.950;2024-02-26T03:14:16;99277.00;;;6.99;95.10
71248;BME280;73325;51.138;6.950;2024-02-26T03:16:47;99274.00;;;6.99;94.94
71248;BME280;73325;51.138;6.950;2024-02-26T03:19:17;99273.00;;;6.99;94.97
71248;BME280;73325;51.138;6.950;2024-02-26T03:21:47;99271.00;;;6.99;94.88
71248;BME280;73325;51.138;6.950;2024-02-26T03:24:17;99269.00;;;7.00;95.34
71248;BME280;73325;51.138;6.950;2024-02-26T03:26:48;99268.00;;;6.99;95.32
71248;BME280;73325;51.138;6.950;2024-02-26T03:29:18;99267.00;;;6.99;95.43
71248;BME280;73325;51.138;6.950;2024-02-26T03:31:48;99267.00;;;6.99;95.71
71248;BME280;73325;51.138;6.950;2024-02-26T03:34:19;99267.00;;;6.98;95.57
71248;BME280;73325;51.138;6.950;2024-02-26T03:36:49;99266.00;;;6.98;95.83
71248;BME280;73325;51.138;6.950;2024-02-26T03:39:19;99267.00;;;6.97;96.31
71248;BME280;73325;51.138;6.950;2024-02-26T03:41:49;99269.00;;;6.97;96.23
71248;BME280;73325;51.138;6.950;2024-02-26T03:44:20;99270.00;;;6.97;96.26
71248;BME280;73325;51.138;6.950;2024-02-26T03:46:50;99271.00;;;6.97;96.23
71248;BME280;73325;51.138;6.950;2024-02-26T03:49:20;99272.00;;;6.97;96.05
71248;BME280;73325;51.138;6.950;2024-02-26T03:51:50;99272.00;;;6.97;96.13
71248;BME280;73325;51.138;6.950;2024-02-26T03:54:21;99272.00;;;6.97;96.11
71248;BME280;73325;51.138;6.950;2024-02-26T03:56:51;99273.00;;;6.98;96.13
71248;BME280;73325;51.138;6.950;2024-02-26T03:59:21;99274.00;;;6.98;96.17
71248;BME280;73325;51.138;6.950;2024-02-26T04:01:52;99274.00;;;6.98;96.19
71248;BME280;73325;51.138;6.950;2024-02-26T04:04:22;99274.00;;;6.98;96.27
71248;BME280;73325;51.138;6.950;2024-02-26T04:06:52;99276.00;;;6.98;96.10
71248;BME280;73325;51.138;6.950;2024-02-26T04:09:22;99277.00;;;6.97;96.31
71248;BME280;73325;51.138;6.950;2024-02-26T04:11:53;99278.00;;;6.97;96.39
71248;BME280;73325;51.138;6.950;2024-02-26T04:14:23;99278.00;;;6.97;96.63
71248;BME280;73325;51.138;6.950;2024-02-26T04:16:53;99278.00;;;6.97;96.41
71248;BME280;73325;51.138;6.950;2024-02-26T04:19:23;99278.00;;;6.97;96.46
71248;BME280;73325;51.138;6.950;2024-02-26T04:21:54;99279.00;;;6.97;96.67
71248;BME280;73325;51.138;6.950;2024-02-26T04:24:24;99280.00;;;6.97;96.64
71248;BME280;73325;51.138;6.950;2024-02-26T04:26:55;99280.00;;;6.97;96.61
71248;BME280;73325;51.138;6.950;2024-02-26T04:29:25;99282.00;;;6.97;96.70
71248;BME280;73325;51.138;6.950;2024-02-26T04:31:55;99285.00;;;6.97;96.48
71248;BME280;73325;51.138;6.950;2024-02-26T04:34:26;99287.00;;;6.97;96.60
71248;BME280;73325;51.138;6.950;2024-02-26T04:36:56;99290.00;;;6.97;96.69
71248;BME280;73325;51.138;6.950;2024-02-26T04:39:26;99292.00;;;6.97;96.61
71248;BME280;73325;51.138;6.950;2024-02-26T04:41:56;99294.00;;;6.97;96.57
71248;BME280;73325;51.138;6.950;2024-02-26T04:44:27;99295.00;;;6.97;96.62
71248;BME280;73325;51.138;6.950;2024-02-26T04:46:57;99298.00;;;6.96;96.56
71248;BME280;73325;51.138;6.950;2024-02-26T04:49:27;99303.00;;;6.96;96.49
71248;BME280;73325;51.138;6.950;2024-02-26T04:51:58;99306.00;;;6.95;96.58
71248;BME280;73325;51.138;6.950;2024-02-26T04:54:28;99309.00;;;6.95;96.62
71248;BME280;73325;51.138;6.950;2024-02-26T04:56:58;99310.00;;;6.94;96.65
71248;BME280;73325;51.138;6.950;2024-02-26T04:59:29;99312.00;;;6.93;96.53
71248;BME280;73325;51.138;6.950;2024-02-26T05:01:59;99313.00;;;6.92;96.68
71248;BME280;73325;51.138;6.950;2024-02-26T05:04:29;99315.00;;;6.91;96.89
71248;BME280;73325;51.138;6.950;2024-02-26T05:06:59;99317.00;;;6.90;96.92
71248;BME280;73325;51.138;6.950;2024-02-26T05:09:30;99319.00;;;6.89;96.90
71248;BME280;73325;51.138;6.950;2024-02-26T05:12:00;99322.00;;;6.88;96.98
71248;BME280;73325;51.138;6.950;2024-02-26T05:14:30;99323.00;;;6.87;97.20
71248;BME280;73325;51.138;6.950;2024-02-26T05:17:00;99323.00;;;6.86;97.47
71248;BME280;73325;51.138;6.950;2024-02-26T05:19:31;99324.00;;;6.84;97.49
71248;BME280;73325;51.138;6.950;2024-02-26T05:22:01;99324.00;;;6.83;97.58
71248;BME280;73325;51.138;6.950;2024-02-26T05:24:31;99324.00;;;6.81;97.77
71248;BME280;73325;51.138;6.950;2024-02-26T05:27:01;99325.00;;;6.80;97.89
71248;BME280;73325;51.138;6.950;2024-02-26T05:29:32;99327.00;;;6.78;98.01
71248;BME280;73325;51.138;6.950;2024-02-26T05:32:02;99328.00;;;6.76;98.14
71248;BME280;73325;51.138;6.950;2024-02-26T05:34:33;99330.00;;;6.75;98.27
71248;BME280;73325;51.138;6.950;2024-02-26T05:37:03;99330.00;;;6.73;98.37
71248;BME280;73325;51.138;6.950;2024-02-26T05:39:33;99331.00;;;6.72;98.51
71248;BME280;73325;51.138;6.950;2024-02-26T05:42:04;99331.00;;;6.71;98.55
71248;BME280;73325;51.138;6.950;2024-02-26T05:44:34;99333.00;;;6.70;98.68
71248;BME280;73325;51.138;6.950;2024-02-26T05:47:05;99335.00;;;6.69;98.73
71248;BME280;73325;51.138;6.950;2024-02-26T05:49:35;99336.00;;;6.68;98.79
71248;BME280;73325;51.138;6.950;2024-02-26T05:52:05;99337.00;;;6.66;98.85
71248;BME280;73325;51.138;6.950;2024-02-26T05:54:36;99338.00;;;6.65;98.90
71248;BME280;73325;51.138;6.950;2024-02-26T05:57:06;99340.00;;;6.64;98.94
71248;BME280;73325;51.138;6.950;2024-02-26T05:59:36;99343.00;;;6.63;98.98
71248;BME280;73325;51.138;6.950;2024-02-26T06:02:07;99346.00;;;6.62;98.98
71248;BME280;73325;51.138;6.950;2024-02-26T06:04:37;99348.00;;;6.61;99.02
71248;BME280;73325;51.138;6.950;2024-02-26T06:07:07;99352.00;;;6.60;99.09
71248;BME280;73325;51.138;6.950;2024-02-26T06:09:37;99356.00;;;6.60;99.17
71248;BME280;73325;51.138;6.950;2024-02-26T06:12:08;99360.00;;;6.59;99.23
71248;BME280;73325;51.138;6.950;2024-02-26T06:14:38;99364.00;;;6.58;99.26
71248;BME280;73325;51.138;6.950;2024-02-26T06:17:09;99367.00;;;6.58;99.26
71248;BME280;73325;51.138;6.950;2024-02-26T06:19:39;99369.00;;;6.58;99.32
71248;BME280;73325;51.138;6.950;2024-02-26T06:22:09;99372.00;;;6.57;99.38
71248;BME280;73325;51.138;6.950;2024-02-26T06:24:40;99375.00;;;6.57;99.42
71248;BME280;73325;51.138;6.950;2024-02-26T06:27:10;99377.00;;;6.57;99.46
71248;BME280;73325;51.138;6.950;2024-02-26T06:29:40;99382.00;;;6.57;99.54
71248;BME280;73325;51.138;6.950;2024-02-26T06:32:10;99385.00;;;6.56;99.57
71248;BME280;73325;51.138;6.950;2024-02-26T06:34:41;99389.00;;;6.56;99.59
71248;BME280;73325;51.138;6.950;2024-02-26T06:37:11;99393.00;;;6.56;99.60
71248;BME280;73325;51.138;6.950;2024-02-26T06:39:41;99398.00;;;6.56;99.59
71248;BME280;73325;51.138;6.950;2024-02-26T06:42:12;99402.00;;;6.56;99.60
71248;BME280;73325;51.138;6.950;2024-02-26T06:44:42;99406.00;;;6.56;99.62
71248;BME280;73325;51.138;6.950;2024-02-26T06:47:12;99409.00;;;6.56;99.65
71248;BME280;73325;51.138;6.950;2024-02-26T06:49:43;99412.00;;;6.56;99.68
71248;BME280;73325;51.138;6.950;2024-02-26T06:52:13;99415.00;;;6.55;99.72
71248;BME280;73325;51.138;6.950;2024-02-26T06:54:43;99418.00;;;6.55;99.75
71248;BME280;73325;51.138;6.950;2024-02-26T06:57:14;99420.00;;;6.55;99.77
71248;BME280;73325;51.138;6.950;2024-02-26T06:59:44;99422.00;;;6.54;99.78
71248;BME280;73325;51.138;6.950;2024-02-26T07:02:15;99425.00;;;6.54;99.79
71248;BME280;73325;51.138;6.950;2024-02-26T07:04:44;99429.00;;;6.54;99.81
71248;BME280;73325;51.138;6.950;2024-02-26T07:07:14;99431.00;;;6.54;99.87
71248;BME280;73325;51.138;6.950;2024-02-26T07:09:45;99433.00;;;6.53;99.90
71248;BME280;73325;51.138;6.950;2024-02-26T07:12:15;99436.00;;;6.53;99.91
71248;BME280;73325;51.138;6.950;2024-02-26T07:14:46;99437.00;;;6.52;99.95
71248;BME280;73325;51.138;6.950;2024-02-26T07:17:16;99440.00;;;6.52;99.96
71248;BME280;73325;51.138;6.950;2024-02-26T07:19:47;99443.00;;;6.51;100.00
71248;BME280;73325;51.138;6.950;2024-02-26T07:22:17;99445.00;;;6.51;100.00
71248;BME280;73325;51.138;6.950;2024-02-26T07:24:47;99447.00;;;6.50;100.00
71248;BME280;73325;51.138;6.950;2024-02-26T07:27:20;99450.00;;;6.50;100.00
71248;BME280;73325;51.138;6.950;2024-02-26T07:29:48;99453.00;;;6.49;100.00
71248;BME280;73325;51.138;6.950;2024-02-26T07:32:18;99455.00;;;6.49;100.00
71248;BME280;73325;51.138;6.950;2024-02-26T07:34:49;99456.00;;;6.49;100.00
71248;BME280;73325;51.138;6.950;2024-02-26T07:37:19;99458.00;;;6.50;100.00
71248;BME280;73325;51.138;6.950;2024-02-26T07:39:49;99460.00;;;6.50;100.00
71248;BME280;73325;51.138;6.950;2024-02-26T07:42:19;99461.00;;;6.51;100.00
71248;BME280;73325;51.138;6.950;2024-02-26T07:44:50;99463.00;;;6.51;100.00
71248;BME280;73325;51.138;6.950;2024-02-26T07:47:20;99464.00;;;6.52;100.00
71248;BME280;73325;51.138;6.950;2024-02-26T07:49:50;99466.00;;;6.53;100.00
71248;BME280;73325;51.138;6.950;2024-02-26T07:52:20;99469.00;;;6.53;100.00
71248;BME280;73325;51.138;6.950;2024-02-26T07:54:51;99471.00;;;6.54;100.00
71248;BME280;73325;51.138;6.950;2024-02-26T07:57:21;99474.00;;;6.55;100.00
71248;BME280;73325;51.138;6.950;2024-02-26T07:59:51;99476.00;;;6.56;100.00
71248;BME280;73325;51.138;6.950;2024-02-26T08:02:22;99478.00;;;6.57;100.00
71248;BME280;73325;51.138;6.950;2024-02-26T08:04:52;99481.00;;;6.58;100.00
71248;BME280;73325;51.138;6.950;2024-02-26T08:07:22;99483.00;;;6.59;100.00
71248;BME280;73325;51.138;6.950;2024-02-26T08:09:52;99484.00;;;6.61;100.00
71248;BME280;73325;51.138;6.950;2024-02-26T08:12:23;99486.00;;;6.63;100.00
71248;BME280;73325;51.138;6.950;2024-02-26T08:14:53;99488.00;;;6.64;100.00
71248;BME280;73325;51.138;6.950;2024-02-26T08:17:23;99491.00;;;6.66;100.00
71248;BME280;73325;51.138;6.950;2024-02-26T08:19:54;99493.00;;;6.67;100.00
71248;BME280;73325;51.138;6.950;2024-02-26T08:22:24;99495.00;;;6.69;100.00
71248;BME280;73325;51.138;6.950;2024-02-26T08:24:54;99499.00;;;6.70;100.00
71248;BME280;73325;51.138;6.950;2024-02-26T08:27:24;99502.00;;;6.72;100.00
71248;BME280;73325;51.138;6.950;2024-02-26T08:29:55;99505.00;;;6.73;100.00
71248;BME280;73325;51.138;6.950;2024-02-26T08:32:25;99506.00;;;6.74;100.00
71248;BME280;73325;51.138;6.950;2024-02-26T08:34:55;99509.00;;;6.76;100.00
71248;BME280;73325;51.138;6.950;2024-02-26T08:37:25;99512.00;;;6.77;100.00
71248;BME280;73325;51.138;6.950;2024-02-26T08:39:56;99515.00;;;6.77;100.00
71248;BME280;73325;51.138;6.950;2024-02-26T08:42:26;99518.00;;;6.78;100.00
71248;BME280;73325;51.138;6.950;2024-02-26T08:44:57;99521.00;;;6.79;100.00
71248;BME280;73325;51.138;6.950;2024-02-26T08:47:27;99523.00;;;6.79;100.00
71248;BME280;73325;51.138;6.950;2024-02-26T08:49:57;99526.00;;;6.79;100.00
71248;BME280;73325;51.138;6.950;2024-02-26T08:52:27;99531.00;;;6.80;100.00
71248;BME280;73325;51.138;6.950;2024-02-26T08:54:58;99534.00;;;6.80;100.00
71248;BME280;73325;51.138;6.950;2024-02-26T08:57:28;99534.00;;;6.80;100.00
71248;BME280;73325;51.138;6.950;2024-02-26T08:59:58;99534.00;;;6.81;100.00
71248;BME280;73325;51.138;6.950;2024-02-26T09:02:28;99535.00;;;6.82;100.00
71248;BME280;73325;51.138;6.950;2024-02-26T09:04:59;99537.00;;;6.83;100.00
71248;BME280;73325;51.138;6.950;2024-02-26T09:07:29;99538.00;;;6.83;100.00
71248;BME280;73325;51.138;6.950;2024-02-26T09:09:59;99538.00;;;6.84;100.00
71248;BME280;73325;51.138;6.950;2024-02-26T09:12:29;99539.00;;;6.84;100.00
71248;BME280;73325;51.138;6.950;2024-02-26T09:15:00;99539.00;;;6.84;100.00
71248;BME280;73325;51.138;6.950;2024-02-26T09:17:30;99540.00;;;6.84;100.00
71248;BME280;73325;51.138;6.950;2024-02-26T09:20:02;99542.00;;;6.84;100.00
71248;BME280;73325;51.138;6.950;2024-02-26T09:22:30;99545.00;;;6.84;100.00
71248;BME280;73325;51.138;6.950;2024-02-26T09:25:01;99548.00;;;6.85;100.00
71248;BME280;73325;51.138;6.950;2024-02-26T09:27:31;99549.00;;;6.85;100.00
71248;BME280;73325;51.138;6.950;2024-02-26T09:30:02;99551.00;;;6.85;100.00
71248;BME280;73325;51.138;6.950;2024-02-26T09:32:33;99554.00;;;6.86;100.00
71248;BME280;73325;51.138;6.950;2024-02-26T09:35:03;99557.00;;;6.87;100.00
71248;BME280;73325;51.138;6.950;2024-02-26T09:37:34;99560.00;;;6.88;100.00
71248;BME280;73325;51.138;6.950;2024-02-26T09:40:05;99564.00;;;6.89;100.00
71248;BME280;73325;51.138;6.950;2024-02-26T09:42:35;99568.00;;;6.90;100.00
71248;BME280;73325;51.138;6.950;2024-02-26T09:45:06;99571.00;;;6.90;100.00
71248;BME280;73325;51.138;6.950;2024-02-26T09:47:36;99575.00;;;6.91;100.00
71248;BME280;73325;51.138;6.950;2024-02-26T09:50:09;99578.00;;;6.91;100.00
71248;BME280;73325;51.138;6.950;2024-02-26T09:52:38;99582.00;;;6.91;100.00
71248;BME280;73325;51.138;6.950;2024-02-26T09:55:09;99586.00;;;6.92;100.00
71248;BME280;73325;51.138;6.950;2024-02-26T09:57:42;99588.00;;;6.92;100.00
71248;BME280;73325;51.138;6.950;2024-02-26T10:00:10;99593.00;;;6.93;100.00
71248;BME280;73325;51.138;6.950;2024-02-26T10:02:40;99596.00;;;6.93;100.00
71248;BME280;73325;51.138;6.950;2024-02-26T10:05:14;99599.00;;;6.94;100.00
71248;BME280;73325;51.138;6.950;2024-02-26T10:07:42;99602.00;;;6.94;100.00
71248;BME280;73325;51.138;6.950;2024-02-26T10:10:12;99604.00;;;6.94;100.00
71248;BME280;73325;51.138;6.950;2024-02-26T10:12:42;99607.00;;;6.94;100.00
71248;BME280;73325;51.138;6.950;2024-02-26T10:15:12;99609.00;;;6.95;100.00
71248;BME280;73325;51.138;6.950;2024-02-26T10:17:43;99612.00;;;6.95;100.00
71248;BME280;73325;51.138;6.950;2024-02-26T10:20:14;99615.00;;;6.95;100.00
71248;BME280;73325;51.138;6.950;2024-02-26T10:22:47;99617.00;;;6.96;100.00
71248;BME280;73325;51.138;6.950;2024-02-26T10:25:14;99620.00;;;6.97;100.00
71248;BME280;73325;51.138;6.950;2024-02-26T10:27:45;99622.00;;;6.97;100.00
71248;BME280;73325;51.138;6.950;2024-02-26T10:30:19;99624.00;;;6.97;100.00
71248;BME280;73325;51.138;6.950;2024-02-26T10:32:45;99626.00;;;6.98;100.00
71248;BME280;73325;51.138;6.950;2024-02-26T10:35:16;99629.00;;;7.00;100.00
71248;BME280;73325;51.138;6.950;2024-02-26T10:37:47;99631.00;;;7.02;100.00
71248;BME280;73325;51.138;6.950;2024-02-26T10:40:17;99633.00;;;7.05;100.00
71248;BME280;73325;51.138;6.950;2024-02-26T10:42:47;99635.00;;;7.08;100.00
71248;BME280;73325;51.138;6.950;2024-02-26T10:45:17;99638.00;;;7.11;100.00
71248;BME280;73325;51.138;6.950;2024-02-26T10:47:48;99640.00;;;7.14;100.00
71248;BME280;73325;51.138;6.950;2024-02-26T10:50:19;99643.00;;;7.17;100.00
71248;BME280;73325;51.138;6.950;2024-02-26T10:52:49;99645.00;;;7.20;100.00
71248;BME280;73325;51.138;6.950;2024-02-26T10:55:21;99648.00;;;7.23;100.00
71248;BME280;73325;51.138;6.950;2024-02-26T10:57:52;99652.00;;;7.27;100.00
71248;BME280;73325;51.138;6.950;2024-02-26T11:00:20;99654.00;;;7.30;100.00
71248;BME280;73325;51.138;6.950;2024-02-26T11:02:51;99657.00;;;7.33;100.00
71248;BME280;73325;51.138;6.950;2024-02-26T11:05:22;99658.00;;;7.36;100.00
71248;BME280;73325;51.138;6.950;2024-02-26T11:07:52;99661.00;;;7.38;100.00
71248;BME280;73325;51.138;6.950;2024-02-26T11:10:22;99663.00;;;7.41;100.00
71248;BME280;73325;51.138;6.950;2024-02-26T11:12:54;99665.00;;;7.43;100.00
71248;BME280;73325;51.138;6.950;2024-02-26T11:15:23;99666.00;;;7.45;100.00
71248;BME280;73325;51.138;6.950;2024-02-26T11:17:55;99669.00;;;7.47;100.00
71248;BME280;73325;51.138;6.950;2024-02-26T11:20:25;99671.00;;;7.48;100.00
71248;BME280;73325;51.138;6.950;2024-02-26T11:22:54;99672.00;;;7.50;100.00
71248;BME280;73325;51.138;6.950;2024-02-26T11:25:24;99674.00;;;7.51;100.00
71248;BME280;73325;51.138;6.950;2024-02-26T11:27:58;99676.00;;;7.52;100.00
71248;BME280;73325;51.138;6.950;2024-02-26T11:30:26;99679.00;;;7.54;100.00
71248;BME280;73325;51.138;6.950;2024-02-26T11:32:56;99681.00;;;7.56;100.00
71248;BME280;73325;51.138;6.950;2024-02-26T11:35:27;99683.00;;;7.57;100.00
71248;BME280;73325;51.138;6.950;2024-02-26T11:37:57;99684.00;;;7.57;100.00
71248;BME280;73325;51.138;6.950;2024-02-26T11:40:28;99685.00;;;7.57;100.00
71248;BME280;73325;51.138;6.950;2024-02-26T11:42:58;99686.00;;;7.57;100.00
71248;BME280;73325;51.138;6.950;2024-02-26T11:45:49;99686.00;;;7.57;100.00
71248;BME280;73325;51.138;6.950;2024-02-26T11:48:01;99686.00;;;7.58;100.00
71248;BME280;73325;51.138;6.950;2024-02-26T11:50:38;99687.00;;;7.59;100.00
71248;BME280;73325;51.138;6.950;2024-02-26T11:55:33;99689.00;;;7.62;100.00
71248;BME280;73325;51.138;6.950;2024-02-26T11:58:00;99690.00;;;7.64;100.00
71248;BME280;73325;51.138;6.950;2024-02-26T12:00:31;99692.00;;;7.67;100.00
71248;BME280;73325;51.138;6.950;2024-02-26T12:03:01;99694.00;;;7.70;100.00
71248;BME280;73325;51.138;6.950;2024-02-26T12:05:32;99696.00;;;7.75;100.00
71248;BME280;73325;51.138;6.950;2024-02-26T12:08:08;99699.00;;;7.80;100.00
71248;BME280;73325;51.138;6.950;2024-02-26T12:10:34;99702.00;;;7.84;100.00
71248;BME280;73325;51.138;6.950;2024-02-26T12:13:10;99703.00;;;7.88;100.00
71248;BME280;73325;51.138;6.950;2024-02-26T12:15:36;99706.00;;;7.92;100.00
71248;BME280;73325;51.138;6.950;2024-02-26T12:18:06;99706.00;;;7.93;100.00
71248;BME280;73325;51.138;6.950;2024-02-26T12:20:35;99707.00;;;7.94;100.00
71248;BME280;73325;51.138;6.950;2024-02-26T12:23:05;99709.00;;;7.95;100.00
71248;BME280;73325;51.138;6.950;2024-02-26T12:25:35;99711.00;;;7.94;100.00
71248;BME280;73325;51.138;6.950;2024-02-26T12:28:06;99713.00;;;7.94;100.00
71248;BME280;73325;51.138;6.950;2024-02-26T12:30:38;99716.00;;;7.94;100.00
71248;BME280;73325;51.138;6.950;2024-02-26T12:33:08;99720.00;;;7.94;100.00
71248;BME280;73325;51.138;6.950;2024-02-26T12:35:38;99724.00;;;7.93;100.00
71248;BME280;73325;51.138;6.950;2024-02-26T12:38:08;99728.00;;;7.93;100.00
71248;BME280;73325;51.138;6.950;2024-02-26T12:40:39;99732.00;;;7.92;100.00
71248;BME280;73325;51.138;6.950;2024-02-26T12:43:09;99736.00;;;7.92;100.00
71248;BME280;73325;51.138;6.950;2024-02-26T12:45:40;99740.00;;;7.91;100.00
71248;BME280;73325;51.138;6.950;2024-02-26T12:48:12;99743.00;;;7.90;100.00
71248;BME280;73325;51.138;6.950;2024-02-26T12:50:44;99747.00;;;7.89;100.00
71248;BME280;73325;51.138;6.950;2024-02-26T12:53:12;99751.00;;;7.88;100.00
71248;BME280;73325;51.138;6.950;2024-02-26T12:55:43;99756.00;;;7.88;100.00
71248;BME280;73325;51.138;6.950;2024-02-26T12:58:14;99760.00;;;7.88;100.00
71248;BME280;73325;51.138;6.950;2024-02-26T13:00:44;99765.00;;;7.88;100.00
71248;BME280;73325;51.138;6.950;2024-02-26T13:03:14;99770.00;;;7.89;100.00
71248;BME280;73325;51.138;6.950;2024-02-26T13:05:45;99773.00;;;7.90;100.00
71248;BME280;73325;51.138;6.950;2024-02-26T13:08:18;99777.00;;;7.91;100.00
71248;BME280;73325;51.138;6.950;2024-02-26T13:10:46;99783.00;;;7.92;100.00
71248;BME280;73325;51.138;6.950;2024-02-26T13:13:17;99786.00;;;7.94;100.00
71248;BME280;73325;51.138;6.950;2024-02-26T13:15:47;99790.00;;;7.96;100.00
71248;BME280;73325;51.138;6.950;2024-02-26T13:18:17;99793.00;;;7.98;100.00
71248;BME280;73325;51.138;6.950;2024-02-26T13:20:48;99797.00;;;8.00;100.00
71248;BME280;73325;51.138;6.950;2024-02-26T13:23:18;99800.00;;;8.02;100.00